Time;durP1;ratioP1;P1;durP2;ratioP2;P2;SDS_P1;SDS_P2;PMS_P1;PMS_P2;Temp;Humidity;BMP_temperature;BMP_pressure;BME280_temperature;BME280_humidity;BME280_pressure;Samples;Min_cycle;Max_cycle;Signal;HPM_P1;HPM_P2
2020/12/03 00:00:52;;;;;;;;;31.00;27.33;;;;;2.11;70.93;102580.81;4372844;32;8958;-75
2020/12/03 00:03:28;;;;;;;;;31.00;28.00;;;;;2.27;70.61;102573.06;4360141;32;8924;-75
2020/12/03 00:06:32;;;;;;;;;28.00;24.33;;;;;2.14;70.42;102580.34;4372378;32;8887;-76
2020/12/03 00:09:20;;;;;;;;;38.00;29.00;;;;;1.88;71.52;102576.03;4363614;32;8886;-76
2020/12/03 00:12:19;;;;;;;;;33.00;31.67;;;;;2.22;70.70;102576.47;4359835;32;9605;-76
2020/12/03 00:15:15;;;;;;;;;32.67;27.33;;;;;2.29;70.20;102584.56;4348766;33;8932;-76
2020/12/03 00:17:43;;;;;;;;;29.67;29.67;;;;;1.90;71.16;102579.34;4359987;32;8927;-77
2020/12/03 00:20:25;;;;;;;;;26.33;26.00;;;;;1.90;71.83;102581.25;4362874;32;9677;-76
2020/12/03 00:22:53;;;;;;;;;29.67;28.67;;;;;1.79;71.80;102582.84;4334122;33;9005;-76
2020/12/03 00:25:52;;;;;;;;;33.67;29.67;;;;;1.90;71.89;102587.53;4371671;32;9536;-76
2020/12/03 00:28:48;;;;;;;;;29.00;26.67;;;;;2.02;71.62;102589.53;4373937;32;8911;-76
2020/12/03 00:31:45;;;;;;;;;30.33;28.67;;;;;2.16;71.26;102578.22;4373423;32;8984;-75
2020/12/03 00:34:41;;;;;;;;;33.00;30.33;;;;;1.81;72.16;102575.25;4361063;32;8895;-75
2020/12/03 00:37:30;;;;;;;;;24.67;20.00;;;;;2.11;71.70;102578.06;4360005;32;8892;-75
2020/12/03 00:40:19;;;;;;;;;34.67;30.33;;;;;2.04;71.88;102576.47;4362535;32;8930;-76
2020/12/03 00:43:16;;;;;;;;;32.00;28.33;;;;;2.11;71.78;102572.63;4373665;32;9629;-76
2020/12/03 00:46:12;;;;;;;;;37.33;33.67;;;;;1.95;72.11;102565.87;4370155;32;8902;-76
2020/12/03 00:48:39;;;;;;;;;31.67;31.67;;;;;1.76;73.54;102563.34;4359542;32;8897;-76
2020/12/03 00:51:35;;;;;;;;;38.33;35.33;;;;;1.83;73.29;102564.12;4370556;32;8895;-76
2020/12/03 00:54:31;;;;;;;;;22.00;20.67;;;;;2.09;72.76;102563.81;4371745;32;8950;-76
2020/12/03 00:57:12;;;;;;;;;32.33;28.00;;;;;2.08;72.50;102559.44;4361708;32;8894;-76
2020/12/03 01:00:12;;;;;;;;;29.00;29.00;;;;;1.80;73.26;102564.59;4358338;32;9053;-75
2020/12/03 01:02:39;;;;;;;;;49.67;42.00;;;;;1.47;74.79;102563.03;4359756;32;8896;-75
2020/12/03 01:05:34;;;;;;;;;33.33;31.67;;;;;1.74;74.39;102569.03;4360251;32;8891;-76
2020/12/03 01:08:30;;;;;;;;;35.33;31.33;;;;;1.64;74.41;102564.12;4354237;32;8949;-76
2020/12/03 01:11:26;;;;;;;;;44.67;32.33;;;;;1.83;74.12;102564.94;4358683;32;8893;-76
2020/12/03 01:13:57;;;;;;;;;37.33;29.33;;;;;2.11;73.33;102563.59;4360417;32;8916;-76
2020/12/03 01:16:52;;;;;;;;;28.67;27.67;;;;;1.65;74.97;102564.94;4362191;32;8915;-76
2020/12/03 01:19:48;;;;;;;;;36.00;34.33;;;;;1.59;75.19;102563.13;4359235;32;8911;-75
2020/12/03 01:22:24;;;;;;;;;30.00;27.67;;;;;2.05;74.01;102575.41;4364840;32;8932;-75
2020/12/03 01:25:23;;;;;;;;;34.67;30.33;;;;;2.03;73.64;102567.47;4359244;32;8898;-75
2020/12/03 01:28:18;;;;;;;;;33.33;31.00;;;;;1.71;74.98;102558.59;4358542;32;8918;-75
2020/12/03 01:31:15;;;;;;;;;37.67;33.00;;;;;1.86;74.82;102571.88;4358426;32;8941;-75
2020/12/03 01:33:59;;;;;;;;;50.33;35.33;;;;;1.74;75.22;102566.31;4365917;32;8898;-75
2020/12/03 01:36:54;;;;;;;;;30.33;29.67;;;;;1.95;74.96;102571.34;4365996;32;9016;-75
2020/12/03 01:39:25;;;;;;;;;31.00;29.00;;;;;1.92;74.75;102569.06;4358792;32;8888;-75
2020/12/03 01:42:21;;;;;;;;;35.00;30.00;;;;;1.94;74.63;102566.94;4371643;32;8891;-75
2020/12/03 01:44:52;;;;;;;;;32.00;32.00;;;;;2.08;74.68;102564.91;4373646;32;8893;-75
2020/12/03 01:47:49;;;;;;;;;35.33;32.33;;;;;1.78;75.58;102562.09;4366028;32;8917;-75
2020/12/03 01:50:32;;;;;;;;;30.33;29.33;;;;;1.67;75.85;102563.66;4362022;32;8922;-74
2020/12/03 01:53:29;;;;;;;;;34.00;32.33;;;;;1.85;75.23;102557.41;4372252;32;8959;-75
2020/12/03 01:56:04;;;;;;;;;39.67;39.67;;;;;1.43;76.93;102555.50;4373465;32;9682;-75
2020/12/03 01:58:55;;;;;;;;;39.33;39.33;;;;;1.78;75.87;102559.34;4374231;32;8902;-75
2020/12/03 02:01:51;;;;;;;;;46.67;43.33;;;;;1.86;75.82;102550.03;4364444;32;9543;-75
2020/12/03 02:05:11;;;;;;;;;37.00;36.00;;;;;1.73;76.37;102551.00;4362430;32;8891;-75
2020/12/03 02:07:40;;;;;;;;;62.33;45.67;;;;;1.85;76.16;102542.91;4373048;32;8906;-75
2020/12/03 02:10:36;;;;;;;;;36.00;34.33;;;;;1.97;75.87;102546.53;4372013;32;8899;-75
2020/12/03 02:13:31;;;;;;;;;67.33;56.00;;;;;1.66;76.72;102551.06;4373914;32;8904;-76
2020/12/03 02:16:31;;;;;;;;;85.33;67.00;;;;;1.60;77.11;102541.06;4358028;32;9011;-76
2020/12/03 02:19:00;;;;;;;;;70.67;53.00;;;;;1.71;76.95;102544.97;4359493;32;8958;-75
2020/12/03 02:22:02;;;;;;;;;52.33;46.67;;;;;1.74;76.73;102552.69;4357285;32;8903;-75
2020/12/03 02:24:44;;;;;;;;;41.00;33.33;;;;;1.67;77.15;102550.00;4358249;32;8896;-75
2020/12/03 02:27:41;;;;;;;;;41.33;38.33;;;;;1.63;77.38;102550.72;4358076;32;9640;-76
2020/12/03 02:30:38;;;;;;;;;41.67;34.67;;;;;1.61;77.79;102548.22;4356854;32;9562;-75
2020/12/03 02:33:34;;;;;;;;;40.00;37.33;;;;;1.96;76.96;102555.78;4358026;33;9050;-75
2020/12/03 02:36:00;;;;;;;;;35.00;29.67;;;;;1.74;77.66;102552.69;4358838;32;8896;-75
2020/12/03 02:38:56;;;;;;;;;25.00;25.00;;;;;1.47;78.41;102556.75;4357972;33;8940;-75
2020/12/03 02:41:53;;;;;;;;;29.33;27.33;;;;;1.49;78.50;102557.34;4357245;32;9607;-75
2020/12/03 02:44:49;;;;;;;;;44.67;40.00;;;;;1.78;77.63;102556.63;4356989;32;8898;-75
2020/12/03 02:47:45;;;;;;;;;42.67;31.00;;;;;1.94;77.00;102547.00;4368259;32;8918;-75
2020/12/03 02:50:40;;;;;;;;;35.00;30.67;;;;;1.77;77.29;102551.41;4367574;32;9040;-76
2020/12/03 02:53:21;;;;;;;;;47.00;43.00;;;;;1.59;78.26;102547.59;4358749;32;8943;-75
2020/12/03 02:55:52;;;;;;;;;38.00;38.00;;;;;1.83;77.31;102548.56;4359636;32;8893;-75
2020/12/03 02:58:19;;;;;;;;;45.00;37.00;;;;;2.01;76.89;102545.03;4360898;32;8889;-75
2020/12/03 03:01:14;;;;;;;;;42.33;37.33;;;;;1.98;76.64;102550.09;4359205;32;8915;-76
2020/12/03 03:03:42;;;;;;;;;47.67;41.00;;;;;1.93;76.95;102543.44;4376574;32;8898;-75
2020/12/03 03:06:38;;;;;;;;;62.33;50.67;;;;;1.93;76.79;102535.25;4375080;32;8904;-76
2020/12/03 03:09:33;;;;;;;;;40.00;37.33;;;;;1.98;76.84;102537.28;4375323;32;8958;-76
2020/12/03 03:12:06;;;;;;;;;39.33;35.33;;;;;1.91;76.79;102528.34;4376345;32;8882;-76
2020/12/03 03:15:02;;;;;;;;;32.00;30.00;;;;;1.87;77.18;102535.34;4363275;32;8961;-76
2020/12/03 03:17:59;;;;;;;;;37.33;25.00;;;;;1.91;77.03;102534.63;4359338;33;8973;-76
2020/12/03 03:20:25;;;;;;;;;43.33;38.67;;;;;1.92;76.84;102543.69;4360739;32;8939;-76
2020/12/03 03:23:16;;;;;;;;;42.67;42.00;;;;;2.20;76.48;102540.38;4356916;32;9633;-75
2020/12/03 03:26:12;;;;;;;;;33.33;29.67;;;;;2.04;76.60;102547.28;4374603;32;9018;-75
2020/12/03 03:29:08;;;;;;;;;30.33;30.33;;;;;2.09;75.94;102544.72;4374140;32;8950;-75
2020/12/03 03:32:03;;;;;;;;;35.00;33.00;;;;;1.78;77.12;102548.44;4370672;32;9008;-75
2020/12/03 03:34:30;;;;;;;;;44.67;41.67;;;;;2.08;76.82;102553.97;4376625;32;9005;-75
2020/12/03 03:36:57;;;;;;;;;56.00;42.00;;;;;2.22;76.18;102539.09;4376340;32;8956;-76
2020/12/03 03:39:53;;;;;;;;;35.67;30.67;;;;;2.16;76.44;102539.19;4372656;32;8967;-76
2020/12/03 03:42:34;;;;;;;;;52.00;47.33;;;;;1.93;76.97;102537.16;4348802;32;8953;-76
2020/12/03 03:45:04;;;;;;;;;88.67;65.33;;;;;2.09;76.60;102539.25;4375241;32;8890;-76
2020/12/03 03:47:31;;;;;;;;;70.00;55.67;;;;;2.10;76.48;102534.63;4365896;32;8880;-75
2020/12/03 03:50:29;;;;;;;;;46.33;38.00;;;;;2.09;76.80;102539.25;4364202;32;9084;-75
2020/12/03 03:53:25;;;;;;;;;22.00;16.00;;;;;1.99;76.80;102549.03;4364267;32;8915;-75
2020/12/03 03:56:11;;;;;;;;;50.00;39.33;;;;;2.06;76.82;102547.06;4360892;32;8910;-76
2020/12/03 03:58:41;;;;;;;;;56.67;42.67;;;;;2.10;76.64;102553.75;4376615;32;8886;-76
2020/12/03 04:01:37;;;;;;;;;47.33;41.00;;;;;2.08;76.91;102539.50;4361801;32;9652;-75
2020/12/03 04:04:18;;;;;;;;;74.33;59.33;;;;;2.21;76.31;102531.13;4370307;32;8910;-75
2020/12/03 04:07:16;;;;;;;;;82.33;60.33;;;;;2.03;76.65;102533.88;4371574;32;8958;-75
2020/12/03 04:09:57;;;;;;;;;60.00;44.33;;;;;2.16;76.74;102533.72;4360752;32;8900;-75
2020/12/03 04:12:54;;;;;;;;;51.00;46.33;;;;;2.00;77.10;102534.34;4359181;32;8902;-75
2020/12/03 04:15:50;;;;;;;;;56.33;47.67;;;;;2.41;76.06;102525.41;4359421;32;8944;-76
2020/12/03 04:18:45;;;;;;;;;65.00;52.33;;;;;2.22;76.32;102539.09;4363661;32;9065;-76
2020/12/03 04:21:16;;;;;;;;;72.00;56.33;;;;;2.03;77.40;102539.34;4375965;32;8906;-76
2020/12/03 04:24:12;;;;;;;;;71.33;54.33;;;;;1.99;77.47;102549.03;4372446;32;8973;-76
2020/12/03 04:27:09;;;;;;;;;43.33;38.33;;;;;2.09;77.24;102546.62;4373909;32;8919;-76
2020/12/03 04:29:36;;;;;;;;;80.67;57.00;;;;;1.85;78.11;102546.47;4374179;32;8897;-76
2020/12/03 04:32:22;;;;;;;;;51.00;38.67;;;;;2.09;77.13;102552.91;4348861;33;8947;-76
2020/12/03 04:35:05;;;;;;;;;47.67;41.67;;;;;2.15;77.29;102549.28;4359042;32;8932;-76
2020/12/03 04:38:00;;;;;;;;;62.33;49.33;;;;;2.13;77.38;102548.66;4360257;32;8913;-75
2020/12/03 04:40:33;;;;;;;;;26.00;26.00;;;;;2.31;76.46;102547.81;4360968;32;8920;-75
2020/12/03 04:43:39;;;;;;;;;46.67;43.33;;;;;1.99;77.26;102547.12;4361476;32;8891;-75
2020/12/03 04:47:13;;;;;;;;;68.67;56.33;;;;;2.26;76.80;102547.66;4357043;32;8990;-76
2020/12/03 04:50:28;;;;;;;;;55.67;46.00;;;;;2.20;76.69;102562.22;4373853;32;8945;-75
2020/12/03 04:53:29;;;;;;;;;52.00;45.67;;;;;2.15;76.88;102562.09;4375421;32;8906;-75
2020/12/03 04:56:02;;;;;;;;;36.67;35.67;;;;;2.29;76.46;102563.56;4374491;32;8914;-75
2020/12/03 04:59:04;;;;;;;;;36.00;36.00;;;;;2.22;77.12;102571.00;4354297;32;8956;-75
2020/12/03 05:01:57;;;;;;;;;44.67;43.00;;;;;2.19;76.91;102571.47;4372192;32;8878;-76
2020/12/03 05:05:13;;;;;;;;;37.00;29.67;;;;;2.27;76.98;102573.88;4349073;33;8911;-75
2020/12/03 05:08:26;;;;;;;;;25.67;25.00;;;;;2.24;77.20;102579.81;4358247;32;8891;-76
2020/12/03 05:11:31;;;;;;;;;39.00;32.67;;;;;2.19;77.34;102566.00;4369487;32;8876;-76
2020/12/03 05:14:41;;;;;;;;;34.67;33.00;;;;;2.33;77.22;102581.16;4361715;32;9087;-75
2020/12/03 05:17:55;;;;;;;;;37.67;32.67;;;;;2.43;76.67;102578.72;4363950;32;8986;-76
2020/12/03 05:20:53;;;;;;;;;38.33;36.00;;;;;2.61;76.06;102590.69;4372460;32;8895;-74
2020/12/03 05:23:50;;;;;;;;;38.00;37.33;;;;;2.64;75.74;102593.78;4373087;32;8879;-75
2020/12/03 05:26:45;;;;;;;;;33.67;33.67;;;;;2.58;75.89;102582.94;4372984;32;8915;-75
2020/12/03 05:29:41;;;;;;;;;40.00;35.00;;;;;2.54;76.02;102585.31;4369052;32;8895;-76
2020/12/03 05:32:37;;;;;;;;;36.00;34.33;;;;;2.48;76.24;102587.06;4369065;32;8965;-75
2020/12/03 05:35:10;;;;;;;;;35.00;34.00;;;;;2.45;76.32;102593.00;4372208;32;8952;-75
2020/12/03 05:37:46;;;;;;;;;35.00;34.67;;;;;2.40;76.33;102583.81;4366425;32;9067;-76
2020/12/03 05:40:46;;;;;;;;;44.33;36.67;;;;;2.59;75.83;102592.78;4354869;32;8903;-79
2020/12/03 05:43:29;;;;;;;;;38.00;35.67;;;;;2.60;76.00;102589.81;4362131;32;8894;-79
2020/12/03 05:46:00;;;;;;;;;46.33;36.67;;;;;2.60;75.81;102584.38;4374798;32;8874;-80
2020/12/03 05:49:01;;;;;;;;;33.00;31.00;;;;;2.57;75.99;102581.28;4362706;32;8903;-79
2020/12/03 05:52:19;;;;;;;;;41.33;37.67;;;;;2.64;75.36;102576.56;4372587;32;8996;-79
2020/12/03 05:54:58;;;;;;;;;31.67;30.00;;;;;2.79;74.68;102583.25;4373256;32;8948;-79
2020/12/03 05:58:12;;;;;;;;;35.33;33.33;;;;;2.78;74.80;102594.44;4362930;32;8943;-80
2020/12/03 06:01:14;;;;;;;;;45.33;40.67;;;;;2.71;74.94;102591.78;4370575;32;8996;-80
2020/12/03 06:04:34;;;;;;;;;52.33;47.00;;;;;2.84;74.32;102595.38;4362534;32;8934;-81
2020/12/03 06:07:38;;;;;;;;;40.33;37.00;;;;;2.70;75.19;102592.03;4363949;32;8902;-80
2020/12/03 06:10:59;;;;;;;;;51.00;44.67;;;;;3.42;82.46;102597.41;4359009;32;8928;-80
2020/12/03 06:13:58;;;;;;;;;39.50;35.50;;;;;5.69;82.78;102596.69;4340390;33;8898;-81
2020/12/03 06:17:23;;;;;;;;;32.33;32.33;;;;;4.01;77.96;102600.97;4357294;32;12378;-80
2020/12/03 06:20:05;;;;;;;;;39.33;36.00;;;;;2.97;75.04;102600.66;4358495;33;12382;-80
2020/12/03 06:22:46;;;;;;;;;32.00;30.00;;;;;2.91;75.67;102599.69;4344920;33;8967;-79
2020/12/03 06:25:46;;;;;;;;;32.33;28.33;;;;;2.77;75.33;102598.22;4358062;33;8941;-80
2020/12/03 06:29:02;;;;;;;;;48.67;37.00;;;;;2.71;75.38;102605.44;4348458;33;8885;-80
2020/12/03 06:32:06;;;;;;;;;30.33;30.33;;;;;2.68;74.92;102588.66;4357068;32;9697;-80
2020/12/03 06:34:55;;;;;;;;;38.00;33.67;;;;;2.48;75.73;102580.75;4358397;32;8896;-79
2020/12/03 06:37:41;;;;;;;;;33.67;33.67;;;;;2.71;75.12;102586.31;4345573;33;8912;-79
2020/12/03 06:40:21;;;;;;;;;38.67;36.33;;;;;2.71;75.15;102574.56;4358327;32;8924;-82
2020/12/03 06:43:23;;;;;;;;;58.75;47.75;;;;;4.34;84.13;102581.97;4365779;32;8883;-80
2020/12/03 06:46:09;;;;;;;;;63.50;49.25;;;;;7.71;89.33;102577.16;4359782;32;12396;-82
2020/12/03 06:49:17;;;;;;;;;51.75;41.75;;;;;9.96;87.93;102583.91;4356987;32;12368;-83
2020/12/03 06:52:15;;;;;;;;;48.25;39.75;;;;;11.25;81.55;102580.22;4361555;32;12401;-82
2020/12/03 06:54:59;;;;;;;;;36.75;34.50;;;;;11.19;79.04;102586.91;4372716;32;12401;-82
2020/12/03 06:58:19;;;;;;;;;31.25;30.00;;;;;10.46;73.09;102580.19;4373074;32;12926;-82
2020/12/03 07:01:32;;;;;;;;;37.25;32.75;;;;;10.56;69.34;102584.81;4371126;32;12302;-81
2020/12/03 07:04:47;;;;;;;;;32.00;30.00;;;;;12.05;70.60;102588.06;4370182;32;12356;-80
2020/12/03 07:07:41;;;;;;;;;33.25;32.50;;;;;11.85;52.72;102586.34;4358608;32;12382;-80
2020/12/03 07:10:43;;;;;;;;;37.50;37.25;;;;;8.56;55.13;102590.81;4362189;32;13033;-80
2020/12/03 07:14:09;;;;;;;;;41.50;38.50;;;;;7.07;64.21;102590.97;4372424;32;12358;-80
2020/12/03 07:17:39;;;;;;;;;38.25;37.50;;;;;5.79;64.14;102596.00;4372190;32;12540;-79
2020/12/03 07:20:48;;;;;;;;;35.25;35.25;;;;;5.09;67.03;102596.53;4371980;32;12364;-79
2020/12/03 07:23:40;;;;;;;;;32.75;31.75;;;;;4.81;66.38;102611.09;4360986;32;12356;-79
2020/12/03 07:26:52;;;;;;;;;33.25;33.00;;;;;4.62;66.26;102613.22;4356566;32;12545;-81
2020/12/03 07:30:12;;;;;;;;;34.00;34.00;;;;;4.40;67.00;102616.59;4356817;33;12422;-80
2020/12/03 07:33:36;;;;;;;;;31.25;29.00;;;;;4.18;67.68;102613.69;4350835;32;12365;-79
2020/12/03 07:36:51;;;;;;;;;35.75;34.50;;;;;3.93;68.41;102615.88;4361718;32;12429;-80
2020/12/03 07:39:38;;;;;;;;;43.00;39.67;;;;;3.66;69.68;102612.75;4362114;32;12397;-79
2020/12/03 07:42:17;;;;;;;;;44.25;34.75;;;;;3.66;69.83;102609.19;4373856;32;12423;-80
2020/12/03 07:44:50;;;;;;;;;38.33;38.00;;;;;3.82;69.52;102612.06;4373176;32;12987;-80
2020/12/03 07:48:08;;;;;;;;;31.25;31.00;;;;;3.83;69.54;102621.09;4351500;33;8956;-80
2020/12/03 07:50:39;;;;;;;;;34.67;34.67;;;;;3.71;69.77;102626.59;4360239;32;12411;-80
2020/12/03 07:53:15;;;;;;;;;32.00;31.00;;;;;3.79;69.69;102623.47;4376250;32;12339;-80
2020/12/03 07:55:50;;;;;;;;;26.33;24.00;;;;;3.82;69.59;102627.63;4363854;32;13077;-80
2020/12/03 07:58:44;;;;;;;;;42.25;39.00;;;;;3.83;69.78;102632.91;4362783;32;12533;-80
2020/12/03 08:01:20;;;;;;;;;42.25;35.75;;;;;3.84;69.71;102625.53;4373480;32;12326;-80
2020/12/03 08:04:37;;;;;;;;;49.67;42.00;;;;;3.82;69.64;102624.91;4371276;32;13070;-80
2020/12/03 08:07:04;;;;;;;;;38.67;33.33;;;;;3.71;70.11;102625.75;4348234;32;8898;-80
2020/12/03 08:10:00;;;;;;;;;24.00;24.00;;;;;3.82;69.71;102627.63;4373488;32;12551;-80
2020/12/03 08:13:15;;;;;;;;;31.00;29.00;;;;;3.79;70.10;102636.34;4373571;32;12329;-79
2020/12/03 08:15:55;;;;;;;;;40.67;40.67;;;;;3.76;69.88;102636.81;4366490;32;12358;-79
2020/12/03 08:18:57;;;;;;;;;40.00;36.00;;;;;3.86;69.75;102632.41;4359203;32;12385;-79
2020/12/03 08:21:52;;;;;;;;;28.33;28.33;;;;;3.93;69.45;102639.69;4360798;32;12396;-79
2020/12/03 08:24:25;;;;;;;;;38.00;35.33;;;;;3.86;69.77;102634.31;4359574;32;8985;-79
2020/12/03 08:27:21;;;;;;;;;35.00;35.00;;;;;3.75;69.91;102635.12;4370718;32;12330;-79
2020/12/03 08:30:34;;;;;;;;;41.67;38.33;;;;;3.85;70.00;102643.59;4372165;32;8884;-79
2020/12/03 08:33:32;;;;;;;;;45.00;41.67;;;;;3.75;70.39;102640.59;4362296;32;8887;-79
2020/12/03 08:36:03;;;;;;;;;46.00;42.67;;;;;3.79;70.34;102642.66;4373193;32;8894;-79
2020/12/03 08:38:52;;;;;;;;;39.00;38.67;;;;;3.78;70.50;102645.62;4362960;32;8912;-78
2020/12/03 08:41:49;;;;;;;;;45.67;40.33;;;;;3.83;70.02;102640.25;4370231;32;8948;-79
2020/12/03 08:44:17;;;;;;;;;40.33;35.00;;;;;4.02;69.79;102636.31;4360012;32;8886;-78
2020/12/03 08:47:09;;;;;;;;;52.33;45.33;;;;;3.99;69.63;102636.81;4369166;32;8914;-79
2020/12/03 08:50:02;;;;;;;;;45.33;39.33;;;;;4.03;69.82;102637.16;4357210;32;8902;-79
2020/12/03 08:52:57;;;;;;;;;31.67;24.00;;;;;3.86;70.17;102626.09;4372502;32;12348;-79
2020/12/03 08:55:25;;;;;;;;;43.33;42.00;;;;;3.85;70.27;102625.28;4360569;32;8985;-79
2020/12/03 08:57:56;;;;;;;;;38.33;36.67;;;;;4.01;70.20;102622.87;4373344;32;9537;-80
2020/12/03 09:00:32;;;;;;;;;33.00;33.00;;;;;4.01;70.07;102623.72;4375440;32;12443;-80
2020/12/03 09:03:01;;;;;;;;;45.33;43.33;;;;;4.09;70.14;102619.78;4360906;32;8908;-79
2020/12/03 09:05:52;;;;;;;;;35.00;31.67;;;;;3.97;70.33;102629.91;4373142;32;8992;-79
2020/12/03 09:08:48;;;;;;;;;52.33;41.67;;;;;4.10;70.16;102630.47;4372593;32;12396;-79
2020/12/03 09:11:46;;;;;;;;;38.00;36.00;;;;;4.08;70.04;102610.72;4363151;32;8917;-79
2020/12/03 09:14:42;;;;;;;;;52.75;42.00;;;;;4.20;70.11;102613.44;4373234;32;9027;-79
2020/12/03 09:17:14;;;;;;;;;35.50;32.50;;;;;4.26;69.85;102609.72;4374018;32;12426;-79
2020/12/03 09:20:12;;;;;;;;;48.33;42.00;;;;;4.07;70.07;102602.75;4374487;32;12437;-79
2020/12/03 09:22:51;;;;;;;;;39.00;33.33;;;;;4.14;69.75;102596.09;4358979;32;12393;-79
2020/12/03 09:25:37;;;;;;;;;48.67;42.00;;;;;4.03;70.53;102594.19;4356504;32;9583;-79
2020/12/03 09:28:27;;;;;;;;;46.67;41.00;;;;;4.07;70.57;102600.03;4349061;32;12498;-79
2020/12/03 09:31:09;;;;;;;;;42.33;39.33;;;;;3.99;70.77;102598.50;4358763;32;13102;-79
2020/12/03 09:33:37;;;;;;;;;38.00;36.00;;;;;4.07;70.42;102600.03;4345031;33;12439;-79
2020/12/03 09:36:34;;;;;;;;;33.33;33.33;;;;;4.19;70.13;102593.44;4357561;33;12462;-79
2020/12/03 09:39:03;;;;;;;;;24.50;23.00;;;;;4.09;70.52;102582.28;4362899;32;12457;-80
2020/12/03 09:41:33;;;;;;;;;38.00;37.00;;;;;4.18;70.44;102586.28;4373602;32;13000;-80
2020/12/03 09:44:14;;;;;;;;;80.33;58.33;;;;;3.89;71.08;102566.22;4366560;32;12513;-77
2020/12/03 09:46:46;;;;;;;;;42.33;41.67;;;;;3.62;72.57;102560.44;4358420;32;8894;-79
2020/12/03 09:49:16;;;;;;;;;43.00;41.67;;;;;3.66;72.65;102554.47;4359012;32;8902;-80
2020/12/03 09:52:10;;;;;;;;;50.33;41.67;;;;;3.59;73.20;102528.06;4359158;32;8903;-78
2020/12/03 09:55:14;;;;;;;;;53.00;45.00;;;;;3.87;72.41;102542.91;4357640;32;8962;-79
2020/12/03 09:58:10;;;;;;;;;49.67;42.00;;;;;3.94;72.01;102546.34;4357988;32;8914;-80
2020/12/03 10:01:08;;;;;;;;;39.00;37.00;;;;;3.67;72.51;102551.50;4370574;32;8907;-80
2020/12/03 10:04:11;;;;;;;;;52.33;43.67;;;;;3.94;71.95;102546.34;4373348;32;8960;-80
2020/12/03 10:07:06;;;;;;;;;42.67;42.00;;;;;4.06;71.46;102554.53;4348379;32;8891;-79
2020/12/03 10:10:21;;;;;;;;;47.67;44.00;;;;;4.02;71.56;102556.09;4357950;32;8897;-78
2020/12/03 10:13:37;;;;;;;;;44.67;40.33;;;;;3.88;71.66;102556.34;4370691;32;8903;-79
2020/12/03 10:16:40;;;;;;;;;49.67;45.33;;;;;3.98;71.49;102542.03;4367244;32;8887;-80
2020/12/03 10:19:10;;;;;;;;;42.00;39.67;;;;;3.83;71.74;102550.78;4358405;32;12339;-80
2020/12/03 10:22:31;;;;;;;;;45.33;42.00;;;;;3.76;72.02;102543.78;4368995;32;9571;-80
2020/12/03 10:25:30;;;;;;;;;58.67;50.00;;;;;3.93;71.57;102539.22;4357922;32;8909;-81
2020/12/03 10:28:39;;;;;;;;;48.67;45.00;;;;;3.60;72.23;102534.34;4357805;32;8917;-78
2020/12/03 10:31:30;;;;;;;;;59.00;48.00;;;;;3.64;72.49;102524.63;4346636;33;8954;-80
2020/12/03 10:34:28;;;;;;;;;39.33;38.00;;;;;3.80;72.22;102523.03;4357384;33;8917;-79
2020/12/03 10:37:38;;;;;;;;;52.00;45.67;;;;;3.94;71.80;102527.19;4357717;32;8987;-80
2020/12/03 10:40:35;;;;;;;;;45.00;42.67;;;;;4.15;71.18;102532.00;4356828;32;9104;-80
2020/12/03 10:43:34;;;;;;;;;66.67;53.00;;;;;3.81;72.03;102525.53;4358125;32;8906;-80
2020/12/03 10:46:11;;;;;;;;;66.33;51.33;;;;;3.89;71.74;102522.41;4347130;32;8932;-79
2020/12/03 10:48:47;;;;;;;;;61.67;52.67;;;;;3.94;71.71;102523.62;4372392;32;8891;-82
2020/12/03 10:51:17;;;;;;;;;63.67;51.00;;;;;3.94;71.55;102521.72;4356415;32;8945;-80
2020/12/03 10:53:47;;;;;;;;;48.67;43.67;;;;;3.79;71.91;102519.47;4359534;32;8906;-81
2020/12/03 10:56:23;;;;;;;;;50.33;45.00;;;;;3.92;71.50;102525.78;4358425;32;8878;-80
2020/12/03 10:59:07;;;;;;;;;33.33;29.00;;;;;3.90;71.57;102529.56;4361394;32;8929;-80
2020/12/03 11:01:50;;;;;;;;;57.33;48.67;;;;;3.94;71.25;102521.72;4373827;32;8907;-80
2020/12/03 11:04:18;;;;;;;;;40.33;37.33;;;;;3.50;72.76;102507.63;4369834;32;8933;-80
2020/12/03 11:07:14;;;;;;;;;39.00;37.33;;;;;3.33;73.27;102509.41;4347146;32;12414;-80
2020/12/03 11:09:57;;;;;;;;;41.00;38.33;;;;;3.43;73.30;102508.81;4358531;32;12359;-80
2020/12/03 11:12:27;;;;;;;;;36.00;36.00;;;;;3.70;72.50;102503.69;4361733;32;12336;-79
2020/12/03 11:15:24;;;;;;;;;39.33;35.00;;;;;3.58;72.57;102504.50;4364889;32;12363;-79
2020/12/03 11:18:11;;;;;;;;;50.67;42.33;;;;;3.39;72.63;102510.38;4367589;32;9023;-79
2020/12/03 11:21:23;;;;;;;;;43.00;38.33;;;;;2.98;74.07;102504.75;4359124;32;8917;-79
2020/12/03 11:24:24;;;;;;;;;36.67;34.33;;;;;3.51;72.80;102509.28;4370253;32;8960;-79
2020/12/03 11:27:08;;;;;;;;;41.33;38.00;;;;;3.52;72.60;102510.94;4351712;32;9601;-80
2020/12/03 11:29:36;;;;;;;;;28.00;24.00;;;;;3.78;71.63;102516.97;4362069;32;8945;-79
2020/12/03 11:32:32;;;;;;;;;51.00;44.33;;;;;3.71;71.34;102511.63;4374408;32;12375;-77
2020/12/03 11:35:30;;;;;;;;;34.33;31.33;;;;;3.90;70.87;102510.38;4360953;32;9010;-78
2020/12/03 11:38:13;;;;;;;;;35.00;35.00;;;;;3.95;70.50;102517.91;4342210;32;12475;-79
2020/12/03 11:41:14;;;;;;;;;38.67;36.33;;;;;3.89;70.47;102516.12;4362806;32;8907;-80
2020/12/03 11:49:30;;;;;;;;;35.00;32.00;;;;;3.69;70.96;102518.44;4366075;32;12347;-80
2020/12/03 11:52:32;;;;;;;;;36.33;36.33;;;;;3.78;70.76;102519.72;4359586;32;9099;-80
2020/12/03 11:55:28;;;;;;;;;45.67;42.33;;;;;3.84;70.94;102516.03;4359051;32;8936;-79
2020/12/03 11:58:07;;;;;;;;;47.67;43.00;;;;;3.98;70.45;102520.12;4362768;32;8900;-80
2020/12/03 12:01:13;;;;;;;;;39.33;37.67;;;;;3.92;70.71;102518.37;4359169;32;8890;-79
2020/12/03 12:03:44;;;;;;;;;37.33;37.33;;;;;3.86;70.96;102517.44;4334769;33;8908;-80
2020/12/03 12:06:18;;;;;;;;;38.33;36.00;;;;;3.92;70.75;102521.13;4359534;32;12386;-79
2020/12/03 12:09:06;;;;;;;;;41.33;37.33;;;;;3.70;70.61;102517.34;4359924;32;12407;-79
2020/12/03 12:11:39;;;;;;;;;37.33;37.33;;;;;3.82;70.74;102513.50;4360677;32;8928;-78
2020/12/03 12:14:31;;;;;;;;;46.00;39.00;;;;;3.60;70.92;102518.81;4359949;32;12355;-79
2020/12/03 12:17:31;;;;;;;;;45.00;41.67;;;;;3.74;70.60;102516.62;4371153;32;8919;-79
2020/12/03 12:20:07;;;;;;;;;49.00;43.33;;;;;3.90;70.05;102523.25;4374812;32;8936;-79
2020/12/03 12:22:36;;;;;;;;;52.33;40.67;;;;;3.89;70.12;102522.41;4374247;32;8940;-79
2020/12/03 12:25:07;;;;;;;;;45.33;40.67;;;;;3.86;69.89;102524.81;4360318;32;9033;-80
2020/12/03 12:27:35;;;;;;;;;46.00;42.33;;;;;3.68;70.78;102530.44;4374072;32;12526;-79
2020/12/03 12:30:03;;;;;;;;;54.00;45.67;;;;;3.86;70.08;102528.37;4374109;32;8887;-80
2020/12/03 12:32:59;;;;;;;;;41.67;40.67;;;;;3.79;70.17;102538.63;4372508;32;8962;-79
2020/12/03 12:35:55;;;;;;;;;46.33;43.00;;;;;3.75;70.36;102514.72;4358863;32;9029;-78
2020/12/03 12:38:22;;;;;;;;;59.00;47.33;;;;;3.76;69.94;102519.13;4359896;32;8900;-79
2020/12/03 12:40:51;;;;;;;;;44.00;42.00;;;;;3.77;70.13;102529.00;4364436;32;8883;-80
2020/12/03 12:43:27;;;;;;;;;40.33;38.00;;;;;3.68;69.72;102517.59;4373981;32;12419;-80
2020/12/03 12:46:23;;;;;;;;;65.00;43.67;;;;;3.15;70.97;102521.31;4367393;32;8975;-80
2020/12/03 12:49:19;;;;;;;;;43.00;40.00;;;;;3.59;70.06;102532.69;4348299;32;9571;-81
2020/12/03 12:52:14;;;;;;;;;40.67;40.67;;;;;3.70;69.86;102558.41;4359164;32;8995;-80
2020/12/03 12:55:10;;;;;;;;;57.33;46.00;;;;;3.71;69.58;102543.66;4359132;32;9570;-79
2020/12/03 12:57:40;;;;;;;;;58.67;48.33;;;;;3.77;69.58;102529.00;4368088;32;8944;-81
2020/12/03 13:00:37;;;;;;;;;56.33;45.67;;;;;3.51;70.48;102514.75;4362307;32;8926;-80
2020/12/03 13:03:33;;;;;;;;;40.33;38.33;;;;;3.19;70.88;102508.81;4370217;32;8891;-80
2020/12/03 13:06:29;;;;;;;;;31.67;28.67;;;;;3.56;70.22;102530.44;4365489;32;9059;-79
2020/12/03 13:09:26;;;;;;;;;46.00;44.67;;;;;3.29;70.57;102525.44;4367760;32;8903;-80
2020/12/03 13:12:21;;;;;;;;;43.67;42.33;;;;;3.59;70.20;102522.59;4373786;32;9635;-81
2020/12/03 13:14:48;;;;;;;;;58.00;46.67;;;;;3.67;70.02;102520.56;4370333;32;8896;-80
2020/12/03 13:17:30;;;;;;;;;58.67;47.67;;;;;3.72;69.93;102531.63;4366528;32;8937;-81